TimeAKDT,TemperatureF,Dew PointF,Humidity,Sea Level PressureIn,VisibilityMPH,Wind Direction,Wind SpeedMPH,Gust SpeedMPH,PrecipitationIn,Events,Conditions,WindDirDegrees,DateUTC
12:53 AM,39.0,33.1,79,30.20,10.0,NNW,4.6,-,N/A,,Overcast,330,2013-05-10 08:53:00
1:53 AM,39.0,33.1,79,30.18,10.0,NW,6.9,-,N/A,,Mostly Cloudy,320,2013-05-10 09:53:00
2:53 AM,39.9,34.0,79,30.18,10.0,NW,6.9,-,N/A,,Overcast,320,2013-05-10 10:53:00
3:53 AM,41.0,34.0,76,30.14,10.0,NW,8.1,-,N/A,,Overcast,310,2013-05-10 11:53:00
4:53 AM,41.0,34.0,76,30.16,10.0,North,4.6,-,N/A,,Overcast,360,2013-05-10 12:53:00
5:53 AM,41.0,34.0,76,30.14,10.0,NNW,4.6,-,N/A,,Overcast,330,2013-05-10 13:53:00
6:53 AM,41.0,34.0,76,30.12,10.0,WNW,11.5,-,N/A,,Overcast,300,2013-05-10 14:53:00
7:53 AM,42.1,34.0,73,30.12,10.0,WNW,8.1,-,N/A,,Overcast,300,2013-05-10 15:53:00
8:53 AM,43.0,34.0,71,30.11,10.0,WNW,11.5,-,N/A,,Overcast,300,2013-05-10 16:53:00
9:53 AM,45.0,33.1,63,30.09,10.0,WNW,11.5,18.4,N/A,,Overcast,300,2013-05-10 17:53:00
10:53 AM,46.0,30.9,56,30.07,10.0,WNW,16.1,-,N/A,,Overcast,300,2013-05-10 18:53:00
11:53 AM,48.0,33.1,56,30.07,10.0,WNW,17.3,26.5,N/A,,Overcast,300,2013-05-10 19:53:00
12:53 PM,48.0,32.0,54,30.04,10.0,NW,16.1,25.3,0.00,,Overcast,320,2013-05-10 20:53:00
1:53 PM,48.0,30.9,52,30.03,10.0,WNW,16.1,21.9,N/A,,Mostly Cloudy,300,2013-05-10 21:53:00
2:53 PM,50.0,32.0,50,30.02,10.0,WNW,15.0,24.2,N/A,,Mostly Cloudy,300,2013-05-10 22:53:00
3:53 PM,53.1,30.9,43,30.01,10.0,West,13.8,21.9,N/A,,Mostly Cloudy,280,2013-05-10 23:53:00
4:53 PM,55.0,28.9,37,29.97,10.0,WNW,13.8,23.0,N/A,,Mostly Cloudy,290,2013-05-11 00:53:00
5:53 PM,55.9,26.1,32,29.95,10.0,NNW,13.8,18.4,N/A,,Mostly Cloudy,340,2013-05-11 01:53:00
6:53 PM,53.1,30.9,43,29.94,10.0,NNE,12.7,-,N/A,,Mostly Cloudy,20,2013-05-11 02:53:00
7:53 PM,46.9,37.9,71,29.95,10.0,NE,21.9,27.6,N/A,,Mostly Cloudy,50,2013-05-11 03:53:00
8:53 PM,45.0,37.0,74,29.96,10.0,NNE,16.1,24.2,N/A,,Overcast,30,2013-05-11 04:53:00
9:07 PM,44.6,37.4,76,29.96,10.0,NE,10.4,19.6,N/A,,Overcast,40,2013-05-11 05:07:00
9:53 PM,44.1,37.9,79,29.96,10.0,NE,10.4,-,N/A,,Overcast,40,2013-05-11 05:53:00
10:53 PM,44.1,37.9,79,29.95,10.0,NNE,8.1,-,N/A,,Overcast,20,2013-05-11 06:53:00
11:53 PM,44.1,37.0,76,29.94,10.0,NW,5.8,-,N/A,,Overcast,310,2013-05-11 07:53:00